createdAt,value
2023-04-15T00:00:53.213Z,8.34
2023-04-15T00:01:53.256Z,8.44
2023-04-15T00:02:53.285Z,8.44
2023-04-15T00:03:53.191Z,8.31
2023-04-15T00:04:53.219Z,8.31
2023-04-15T00:05:53.145Z,8.36
2023-04-15T00:06:53.193Z,8.28
2023-04-15T00:07:53.151Z,8.24
2023-04-15T00:08:53.128Z,8.16
2023-04-15T00:09:53.096Z,8.20
2023-04-15T00:10:53.091Z,8.19
2023-04-15T00:11:53.078Z,8.13
2023-04-15T00:12:53.086Z,8.13
2023-04-15T00:13:53.056Z,8.10
2023-04-15T00:14:53.050Z,8.00
2023-04-15T00:15:53.031Z,8.13
2023-04-15T00:16:53.068Z,8.06
2023-04-15T00:17:53.047Z,8.24
2023-04-15T00:18:53.004Z,8.20
2023-04-15T00:19:53.012Z,8.18
2023-04-15T00:20:52.980Z,8.12
2023-04-15T00:21:52.966Z,8.01
2023-04-15T00:22:52.960Z,8.05
2023-04-15T00:23:52.959Z,8.05
2023-04-15T00:24:52.944Z,8.08
2023-04-15T00:25:52.927Z,8.05
2023-04-15T00:26:52.913Z,7.97
2023-04-15T00:27:52.899Z,7.93
2023-04-15T00:28:52.887Z,7.90
2023-04-15T00:29:52.890Z,7.91
2023-04-15T00:30:52.938Z,7.88
2023-04-15T00:31:52.856Z,7.83
2023-04-15T00:32:52.926Z,7.82
2023-04-15T00:33:52.832Z,7.82
2023-04-15T00:34:52.833Z,7.75
2023-04-15T00:35:52.811Z,7.79
2023-04-15T00:36:52.790Z,7.76
2023-04-15T00:37:52.780Z,7.77
2023-04-15T00:38:52.776Z,7.73
2023-04-15T00:39:52.786Z,7.76
2023-04-15T00:40:52.754Z,7.79
2023-04-15T00:41:52.744Z,7.77
2023-04-15T00:42:52.769Z,7.69
2023-04-15T00:43:52.719Z,7.60
2023-04-15T00:44:52.730Z,7.56
2023-04-15T00:45:52.737Z,7.63
2023-04-15T00:46:52.738Z,7.53
2023-04-15T00:47:52.764Z,7.54
2023-04-15T00:48:52.711Z,7.50
2023-04-15T00:49:52.674Z,7.60
2023-04-15T00:50:52.653Z,7.48
2023-04-15T00:51:52.621Z,7.53
2023-04-15T00:52:52.622Z,7.50
2023-04-15T00:53:52.624Z,7.40
2023-04-15T00:54:52.592Z,7.39
2023-04-15T00:55:52.627Z,7.43
2023-04-15T00:56:52.573Z,7.40
2023-04-15T00:57:52.570Z,7.38
2023-04-15T00:58:52.557Z,7.35
2023-04-15T00:59:52.580Z,7.50
2023-04-15T01:00:52.537Z,7.35
2023-04-15T01:01:52.619Z,7.38
2023-04-15T01:02:52.720Z,7.45
2023-04-15T01:03:52.548Z,7.29
2023-04-15T01:04:52.499Z,7.33
2023-04-15T01:05:52.469Z,7.39
2023-04-15T01:06:52.457Z,7.39
2023-04-15T01:07:52.450Z,7.31
2023-04-15T01:08:52.437Z,7.38
2023-04-15T01:09:52.434Z,7.33
2023-04-15T01:10:52.418Z,7.42
2023-04-15T01:11:52.431Z,7.23
2023-04-15T01:12:52.393Z,7.36
2023-04-15T01:13:52.376Z,7.33
2023-04-15T01:14:52.378Z,7.24
2023-04-15T01:15:52.390Z,7.31
2023-04-15T01:16:52.358Z,7.20
2023-04-15T01:17:52.335Z,7.20
2023-04-15T01:18:52.323Z,7.18
2023-04-15T01:19:52.340Z,7.28
2023-04-15T01:20:52.300Z,7.24
2023-04-15T01:21:52.285Z,7.28
2023-04-15T01:22:52.308Z,7.24
2023-04-15T01:23:52.268Z,7.33
2023-04-15T01:24:52.265Z,7.38
2023-04-15T01:25:52.234Z,7.31
2023-04-15T01:26:52.230Z,7.33
2023-04-15T01:27:52.235Z,7.32
2023-04-15T01:28:52.307Z,7.31
2023-04-15T01:29:52.204Z,7.38
2023-04-15T01:30:52.257Z,7.29
2023-04-15T01:31:52.337Z,7.24
2023-04-15T01:32:52.275Z,7.29
2023-04-15T01:33:52.145Z,7.21
2023-04-15T01:34:52.219Z,7.31
2023-04-15T01:35:52.140Z,7.28
2023-04-15T01:36:52.126Z,7.18
2023-04-15T01:37:52.109Z,7.20
2023-04-15T01:38:52.099Z,7.00
2023-04-15T01:39:52.093Z,7.03
2023-04-15T01:40:52.076Z,7.10
2023-04-15T01:41:52.055Z,7.03
2023-04-15T01:42:52.059Z,7.03
2023-04-15T01:43:52.056Z,7.00
2023-04-15T01:44:52.078Z,7.00
2023-04-15T01:45:52.043Z,7.00
2023-04-15T01:46:52.125Z,7.05
2023-04-15T01:47:52.048Z,7.00
2023-04-15T01:48:51.987Z,7.00
2023-04-15T01:49:51.977Z,7.03
2023-04-15T01:50:51.965Z,7.03
2023-04-15T01:51:51.966Z,7.03
2023-04-15T01:52:51.941Z,6.97
2023-04-15T01:53:51.927Z,6.95
2023-04-15T01:54:51.923Z,6.82
2023-04-15T01:55:51.906Z,6.96
2023-04-15T01:56:51.923Z,6.89
2023-04-15T01:57:51.895Z,6.93
2023-04-15T01:58:51.883Z,6.87
2023-04-15T01:59:51.876Z,6.87
2023-04-15T02:00:51.884Z,6.87
2023-04-15T02:01:51.863Z,6.81
2023-04-15T02:02:51.861Z,6.79
2023-04-15T02:03:51.849Z,6.82
2023-04-15T02:04:51.810Z,6.87
2023-04-15T02:05:51.792Z,6.85
2023-04-15T02:06:51.791Z,6.88
2023-04-15T02:07:51.785Z,6.95
2023-04-15T02:08:51.760Z,6.96
2023-04-15T02:09:51.746Z,6.93
2023-04-15T02:10:51.742Z,6.85
2023-04-15T02:11:51.744Z,6.89
2023-04-15T02:12:51.723Z,6.88
2023-04-15T02:13:51.706Z,6.88
2023-04-15T02:14:51.713Z,6.81
2023-04-15T02:15:51.700Z,6.88
2023-04-15T02:16:51.775Z,6.81
2023-04-15T02:17:51.694Z,6.79
2023-04-15T02:18:51.678Z,6.78
2023-04-15T02:19:51.639Z,6.70
2023-04-15T02:20:51.620Z,6.74
2023-04-15T02:21:51.610Z,6.69
2023-04-15T02:22:51.597Z,6.60
2023-04-15T02:23:53.969Z,6.60
2023-04-15T02:24:51.578Z,6.60
2023-04-15T02:25:53.529Z,6.62
2023-04-15T02:26:51.553Z,6.62
2023-04-15T02:27:51.542Z,6.56
2023-04-15T02:28:51.528Z,6.57
2023-04-15T02:29:51.559Z,6.56
2023-04-15T02:30:51.509Z,6.49
2023-04-15T02:31:51.531Z,6.45
2023-04-15T02:32:51.497Z,6.49
2023-04-15T02:33:51.475Z,6.44
2023-04-15T02:34:51.458Z,6.41
2023-04-15T02:35:51.477Z,6.38
2023-04-15T02:36:51.441Z,6.35
2023-04-15T02:37:51.431Z,6.36
2023-04-15T02:38:51.432Z,6.39
2023-04-15T02:39:51.425Z,6.31
2023-04-15T02:40:51.405Z,6.28
2023-04-15T02:41:51.391Z,6.31
2023-04-15T02:42:51.368Z,6.28
2023-04-15T02:43:51.367Z,6.31
2023-04-15T02:44:51.355Z,6.31
2023-04-15T02:45:51.432Z,6.35
2023-04-15T02:46:51.370Z,6.30
2023-04-15T02:47:51.350Z,6.39
2023-04-15T02:48:51.313Z,6.31
2023-04-15T02:49:51.287Z,6.33
2023-04-15T02:50:51.948Z,6.35
2023-04-15T02:51:51.269Z,6.26
2023-04-15T02:52:51.252Z,6.28
2023-04-15T02:53:51.256Z,6.30
2023-04-15T02:54:51.228Z,6.38
2023-04-15T02:55:51.239Z,6.30
2023-04-15T02:56:51.215Z,6.33
2023-04-15T02:57:51.214Z,6.30
2023-04-15T02:58:51.194Z,6.22
2023-04-15T02:59:51.185Z,6.27
2023-04-15T03:00:51.160Z,6.19
2023-04-15T03:01:51.305Z,6.20
2023-04-15T03:02:51.258Z,6.27
2023-04-15T03:03:51.237Z,6.19
2023-04-15T03:04:51.162Z,6.24
2023-04-15T03:05:51.109Z,6.22
2023-04-15T03:06:51.092Z,6.33
2023-04-15T03:07:51.084Z,6.26
2023-04-15T03:08:51.077Z,6.26
2023-04-15T03:09:51.066Z,6.20
2023-04-15T03:10:51.051Z,6.27
2023-04-15T03:11:51.036Z,6.26
2023-04-15T03:12:51.024Z,6.27
2023-04-15T03:13:51.024Z,6.31
2023-04-15T03:14:51.014Z,6.22
2023-04-15T03:15:51.053Z,6.22
2023-04-15T03:16:50.977Z,6.17
2023-04-15T03:17:50.996Z,6.27
2023-04-15T03:18:50.954Z,6.22
2023-04-15T03:19:50.989Z,6.14
2023-04-15T03:20:50.933Z,6.09
2023-04-15T03:21:50.933Z,6.12
2023-04-15T03:22:50.916Z,6.14
2023-04-15T03:23:50.908Z,6.12
2023-04-15T03:24:50.887Z,6.14
2023-04-15T03:25:50.886Z,6.12
2023-04-15T03:26:50.864Z,6.14
2023-04-15T03:27:50.870Z,6.08
2023-04-15T03:28:50.846Z,6.12
2023-04-15T03:29:50.836Z,6.12
2023-04-15T03:30:50.857Z,6.09
2023-04-15T03:31:50.819Z,6.07
2023-04-15T03:32:50.824Z,6.02
2023-04-15T03:33:50.791Z,6.05
2023-04-15T03:34:50.767Z,6.01
2023-04-15T03:35:50.788Z,6.01
2023-04-15T03:36:50.782Z,5.93
2023-04-15T03:37:50.744Z,6.04
2023-04-15T03:38:50.734Z,5.98
2023-04-15T03:39:50.720Z,5.93
2023-04-15T03:40:50.722Z,5.90
2023-04-15T03:41:50.700Z,5.87
2023-04-15T03:42:50.705Z,5.97
2023-04-15T03:43:50.678Z,5.97
2023-04-15T03:44:50.664Z,5.91
2023-04-15T03:45:50.654Z,5.97
2023-04-15T03:46:50.667Z,5.93
2023-04-15T03:47:50.663Z,5.89
2023-04-15T03:48:50.617Z,5.94
2023-04-15T03:49:50.607Z,5.93
2023-04-15T03:50:50.591Z,5.84
2023-04-15T03:51:50.612Z,5.86
2023-04-15T03:52:51.367Z,5.90
2023-04-15T03:53:50.564Z,5.89
2023-04-15T03:54:50.545Z,5.93
2023-04-15T03:55:50.550Z,5.89
2023-04-15T03:56:50.525Z,5.80
2023-04-15T03:57:50.541Z,5.83
2023-04-15T03:58:50.509Z,5.84
2023-04-15T03:59:50.499Z,5.82
2023-04-15T04:00:50.480Z,5.80
2023-04-15T04:01:50.551Z,5.83
2023-04-15T04:02:50.588Z,5.80
2023-04-15T04:03:50.602Z,5.71
2023-04-15T04:04:50.689Z,5.73
2023-04-15T04:05:50.418Z,5.73
2023-04-15T04:06:50.410Z,5.71
2023-04-15T04:07:50.427Z,5.75
2023-04-15T04:08:50.387Z,5.73
2023-04-15T04:09:50.384Z,5.73
2023-04-15T04:10:50.368Z,5.79
2023-04-15T04:11:50.356Z,5.79
2023-04-15T04:12:50.350Z,5.75
2023-04-15T04:13:50.332Z,5.69
2023-04-15T04:14:50.354Z,5.71
2023-04-15T04:15:50.326Z,5.64
2023-04-15T04:16:50.364Z,5.72
2023-04-15T04:17:50.318Z,5.65
2023-04-15T04:18:50.269Z,5.64
2023-04-15T04:19:50.290Z,5.66
2023-04-15T04:20:50.248Z,5.66
2023-04-15T04:21:50.249Z,5.72
2023-04-15T04:22:50.235Z,5.65
2023-04-15T04:23:50.237Z,5.73
2023-04-15T04:24:50.203Z,5.62
2023-04-15T04:25:50.215Z,5.64
2023-04-15T04:26:50.185Z,5.68
2023-04-15T04:27:50.171Z,5.69
2023-04-15T04:28:50.162Z,5.64
2023-04-15T04:29:50.146Z,5.62
2023-04-15T04:30:50.154Z,5.66
2023-04-15T04:31:50.155Z,5.69
2023-04-15T04:32:50.178Z,5.75
2023-04-15T04:33:50.103Z,5.73
2023-04-15T04:34:50.099Z,5.64
2023-04-15T04:35:50.092Z,5.65
2023-04-15T04:36:50.078Z,5.71
2023-04-15T04:37:50.064Z,5.65
2023-04-15T04:38:50.043Z,5.72
2023-04-15T04:39:50.115Z,5.73
2023-04-15T04:40:50.031Z,5.79
2023-04-15T04:41:50.018Z,5.80
2023-04-15T04:42:49.992Z,5.62
2023-04-15T04:43:49.998Z,5.71
2023-04-15T04:44:50.011Z,5.64
2023-04-15T04:45:50.021Z,5.72
2023-04-15T04:46:49.999Z,5.75
2023-04-15T04:47:50.002Z,5.62
2023-04-15T04:48:49.926Z,5.66
2023-04-15T04:49:49.937Z,5.68
2023-04-15T04:50:49.901Z,5.71
2023-04-15T04:51:49.895Z,5.73
2023-04-15T04:52:49.906Z,5.72
2023-04-15T04:53:49.886Z,5.75
2023-04-15T04:54:49.865Z,5.69
2023-04-15T04:55:49.874Z,5.79
2023-04-15T04:56:49.842Z,5.72
2023-04-15T04:57:49.845Z,5.68
2023-04-15T04:58:49.821Z,5.73
2023-04-15T04:59:49.801Z,5.79
2023-04-15T05:00:49.820Z,5.76
2023-04-15T05:01:49.798Z,5.83
2023-04-15T05:02:49.930Z,5.86
2023-04-15T05:03:49.831Z,5.90
2023-04-15T05:04:49.753Z,5.86
2023-04-15T05:05:49.768Z,5.84
2023-04-15T05:06:49.729Z,5.87
2023-04-15T05:07:49.719Z,5.84
2023-04-15T05:08:49.701Z,5.93
2023-04-15T05:09:49.691Z,5.99
2023-04-15T05:10:49.678Z,5.83
2023-04-15T05:11:49.737Z,5.84
2023-04-15T05:12:49.690Z,5.90
2023-04-15T05:13:49.649Z,5.93
2023-04-15T05:14:49.634Z,5.84
2023-04-15T05:15:49.698Z,5.89
2023-04-15T05:16:49.609Z,5.91
2023-04-15T05:17:57.218Z,5.87
2023-04-15T05:18:49.594Z,5.89
2023-04-15T05:19:49.593Z,5.90
2023-04-15T05:20:49.578Z,5.83
2023-04-15T05:21:49.585Z,5.99
2023-04-15T05:22:49.555Z,5.93
2023-04-15T05:23:49.539Z,5.91
2023-04-15T05:24:49.538Z,5.98
2023-04-15T05:25:49.512Z,6.02
2023-04-15T05:26:49.519Z,5.93
2023-04-15T05:27:49.514Z,5.90
2023-04-15T05:28:49.481Z,5.93
2023-04-15T05:29:49.471Z,5.90
2023-04-15T05:30:49.496Z,5.84
2023-04-15T05:31:49.471Z,5.86
2023-04-15T05:32:49.516Z,5.94
2023-04-15T05:33:49.428Z,5.93
2023-04-15T05:34:49.409Z,5.94
2023-04-15T05:35:49.404Z,6.01
2023-04-15T05:36:49.394Z,5.94
2023-04-15T05:37:49.390Z,6.01
2023-04-15T05:38:49.390Z,6.12
2023-04-15T05:39:49.358Z,6.07
2023-04-15T05:40:49.343Z,6.08
2023-04-15T05:41:49.351Z,6.11
2023-04-15T05:42:49.333Z,6.14
2023-04-15T05:43:49.332Z,6.09
2023-04-15T05:44:49.312Z,6.12
2023-04-15T05:45:49.305Z,6.20
2023-04-15T05:46:49.288Z,6.22
2023-04-15T05:47:49.307Z,6.09
2023-04-15T05:48:49.248Z,6.11
2023-04-15T05:49:49.252Z,6.17
2023-04-15T05:50:49.233Z,6.14
2023-04-15T05:51:49.243Z,6.26
2023-04-15T05:52:49.212Z,6.20
2023-04-15T05:53:49.212Z,6.33
2023-04-15T05:54:49.187Z,6.30
2023-04-15T05:55:49.170Z,6.33
2023-04-15T05:56:49.158Z,6.33
2023-04-15T05:57:49.169Z,6.39
2023-04-15T05:58:49.167Z,6.35
2023-04-15T05:59:49.157Z,6.31
2023-04-15T06:00:49.121Z,6.38
2023-04-15T06:01:49.175Z,6.42
2023-04-15T06:02:49.132Z,6.39
2023-04-15T06:03:49.245Z,6.46
2023-04-15T06:04:49.135Z,6.45
2023-04-15T06:05:49.060Z,6.49
2023-04-15T06:06:49.045Z,6.54
2023-04-15T06:07:49.057Z,6.48
2023-04-15T06:08:49.047Z,6.59
2023-04-15T06:09:49.029Z,6.63
2023-04-15T06:10:49.008Z,6.67
2023-04-15T06:11:48.991Z,6.66
2023-04-15T06:12:48.975Z,6.70
2023-04-15T06:13:48.972Z,6.74
2023-04-15T06:14:48.964Z,6.70
2023-04-15T06:15:48.988Z,6.69
2023-04-15T06:16:48.934Z,6.78
2023-04-15T06:17:48.951Z,6.79
2023-04-15T06:18:48.914Z,6.72
2023-04-15T06:19:48.917Z,6.75
2023-04-15T06:20:48.901Z,6.84
2023-04-15T06:21:48.875Z,6.93
2023-04-15T06:22:48.885Z,6.84
2023-04-15T06:23:48.850Z,7.05
2023-04-15T06:24:48.859Z,6.95
2023-04-15T06:25:48.828Z,7.03
2023-04-15T06:26:48.820Z,7.03
2023-04-15T06:27:48.819Z,7.11
2023-04-15T06:28:48.818Z,7.18
2023-04-15T06:29:48.782Z,7.11
2023-04-15T06:30:48.793Z,7.17
2023-04-15T06:31:48.875Z,7.13
2023-04-15T06:32:48.770Z,7.29
2023-04-15T06:33:48.741Z,7.28
2023-04-15T06:34:48.764Z,7.32
2023-04-15T06:35:48.724Z,7.35
2023-04-15T06:36:48.736Z,7.33
2023-04-15T06:37:48.700Z,7.48
2023-04-15T06:38:48.678Z,7.50
2023-04-15T06:39:48.679Z,7.56
2023-04-15T06:40:48.683Z,7.57
2023-04-15T06:41:48.661Z,7.53
2023-04-15T06:42:48.636Z,7.50
2023-04-15T06:43:48.646Z,7.61
2023-04-15T06:44:48.629Z,7.60
2023-04-15T06:45:48.659Z,7.51
2023-04-15T06:46:48.613Z,7.56
2023-04-15T06:47:48.645Z,7.56
2023-04-15T06:48:48.582Z,7.54
2023-04-15T06:49:48.567Z,7.54
2023-04-15T06:50:48.559Z,7.58
2023-04-15T06:51:48.537Z,7.58
2023-04-15T06:52:48.529Z,7.75
2023-04-15T06:53:48.504Z,7.66
2023-04-15T06:54:48.504Z,7.77
2023-04-15T06:55:48.482Z,7.82
2023-04-15T06:56:48.488Z,7.83
2023-04-15T06:57:48.473Z,7.82
2023-04-15T06:58:48.506Z,7.94
2023-04-15T06:59:48.446Z,8.01
2023-04-15T07:00:48.457Z,8.03
2023-04-15T07:01:48.455Z,8.00
2023-04-15T07:02:48.418Z,8.09
2023-04-15T07:03:48.458Z,8.08
2023-04-15T07:04:48.382Z,8.03
2023-04-15T07:05:48.395Z,8.13
2023-04-15T07:06:48.458Z,8.13
2023-04-15T07:07:48.349Z,8.23
2023-04-15T07:08:48.338Z,8.10
2023-04-15T07:09:48.331Z,8.20
2023-04-15T07:10:48.318Z,8.09
2023-04-15T07:11:48.332Z,8.13
2023-04-15T07:12:48.297Z,8.23
2023-04-15T07:13:48.300Z,8.16
2023-04-15T07:14:48.277Z,8.20
2023-04-15T07:15:48.261Z,8.24
2023-04-15T07:16:48.314Z,8.27
2023-04-15T07:17:48.286Z,8.18
2023-04-15T07:18:48.256Z,8.24
2023-04-15T07:19:48.236Z,8.28
2023-04-15T07:20:48.260Z,8.37
2023-04-15T07:21:48.231Z,8.41
2023-04-15T07:22:48.188Z,8.46
2023-04-15T07:23:48.199Z,8.52
2023-04-15T07:24:48.158Z,8.56
2023-04-15T07:25:48.153Z,8.69
2023-04-15T07:26:48.145Z,8.61
2023-04-15T07:27:48.145Z,8.64
2023-04-15T07:28:48.113Z,8.63
2023-04-15T07:29:48.106Z,8.66
2023-04-15T07:30:48.152Z,8.60
2023-04-15T07:31:48.090Z,8.66
2023-04-15T07:32:48.149Z,8.52
2023-04-15T07:33:48.077Z,8.60
2023-04-15T07:34:48.079Z,8.60
2023-04-15T07:35:48.053Z,8.56
2023-04-15T07:36:48.022Z,8.49
2023-04-15T07:37:48.034Z,8.46
2023-04-15T07:38:48.001Z,8.45
2023-04-15T07:39:48.015Z,8.48
2023-04-15T07:40:47.978Z,8.56
2023-04-15T07:41:47.964Z,8.66
2023-04-15T07:42:47.958Z,8.61
2023-04-15T07:43:47.955Z,8.61
2023-04-15T07:44:47.948Z,8.61
2023-04-15T07:45:47.937Z,8.66
2023-04-15T07:46:47.911Z,8.73
2023-04-15T07:47:47.945Z,8.52
2023-04-15T07:48:47.891Z,8.71
2023-04-15T07:49:47.876Z,8.74
2023-04-15T07:50:47.891Z,8.79
2023-04-15T07:51:47.882Z,8.79
2023-04-15T07:52:47.858Z,8.78
2023-04-15T07:53:47.832Z,8.85
2023-04-15T07:54:47.822Z,8.70
2023-04-15T07:55:47.824Z,8.69
2023-04-15T07:56:47.806Z,8.71
2023-04-15T07:57:47.783Z,8.81
2023-04-15T07:58:47.792Z,8.82
2023-04-15T07:59:47.767Z,8.88
2023-04-15T08:00:47.755Z,8.84
2023-04-15T08:01:47.854Z,8.82
2023-04-15T08:02:47.813Z,8.85
2023-04-15T08:03:47.829Z,8.97
2023-04-15T08:04:47.867Z,9.04
2023-04-15T08:05:47.693Z,9.18
2023-04-15T08:06:47.688Z,9.18
2023-04-15T08:07:47.699Z,9.26
2023-04-15T08:08:47.674Z,9.31
2023-04-15T08:09:47.672Z,9.31
2023-04-15T08:10:47.644Z,9.43
2023-04-15T08:11:47.631Z,9.37
2023-04-15T08:12:47.628Z,9.43
2023-04-15T08:13:47.604Z,9.48
2023-04-15T08:14:47.615Z,9.29
2023-04-15T08:15:47.645Z,9.36
2023-04-15T08:16:47.578Z,9.46
2023-04-15T08:17:47.593Z,9.46
2023-04-15T08:18:47.561Z,9.37
2023-04-15T08:19:47.543Z,9.46
2023-04-15T08:20:47.533Z,9.51
2023-04-15T08:21:47.521Z,9.51
2023-04-15T08:22:47.522Z,9.58
2023-04-15T08:23:47.508Z,9.66
2023-04-15T08:24:47.493Z,9.65
2023-04-15T08:25:47.476Z,9.73
2023-04-15T08:26:47.463Z,9.69
2023-04-15T08:27:47.450Z,9.72
2023-04-15T08:28:47.451Z,9.72
2023-04-15T08:29:47.432Z,9.79
2023-04-15T08:30:47.433Z,9.82
2023-04-15T08:31:47.456Z,9.80
2023-04-15T08:32:47.651Z,9.69
2023-04-15T08:33:47.379Z,9.65
2023-04-15T08:34:47.409Z,9.59
2023-04-15T08:35:47.367Z,9.55
2023-04-15T08:36:47.349Z,9.50
2023-04-15T08:37:47.340Z,9.36
2023-04-15T08:38:47.324Z,9.46
2023-04-15T08:39:47.342Z,9.31
2023-04-15T08:40:47.308Z,9.31
2023-04-15T08:41:47.303Z,9.28
2023-04-15T08:42:47.298Z,9.19
2023-04-15T08:43:47.269Z,9.29
2023-04-15T08:44:47.271Z,9.26
2023-04-15T08:45:47.283Z,9.32
2023-04-15T08:46:47.298Z,9.43
2023-04-15T08:47:47.255Z,9.48
2023-04-15T08:48:47.214Z,9.43
2023-04-15T08:49:47.208Z,9.46
2023-04-15T08:50:47.196Z,9.58
2023-04-15T08:51:47.196Z,9.62
2023-04-15T08:52:47.178Z,9.66
2023-04-15T08:53:47.165Z,9.79
2023-04-15T08:54:47.169Z,9.86
2023-04-15T08:55:47.150Z,10.02
2023-04-15T08:56:47.175Z,10.07
2023-04-15T08:57:47.144Z,10.15
2023-04-15T08:58:47.111Z,10.10
2023-04-15T08:59:47.085Z,10.04
2023-04-15T09:00:47.101Z,10.13
2023-04-15T09:01:47.121Z,10.13
2023-04-15T09:02:47.215Z,10.15
2023-04-15T09:03:47.102Z,10.07
2023-04-15T09:04:47.033Z,10.05
2023-04-15T09:05:47.035Z,10.05
2023-04-15T09:06:47.024Z,9.98
2023-04-15T09:07:47.019Z,10.09
2023-04-15T09:08:46.991Z,10.19
2023-04-15T09:09:47.008Z,10.23
2023-04-15T09:10:46.977Z,10.33
2023-04-15T09:11:47.027Z,10.35
2023-04-15T09:12:46.948Z,10.42
2023-04-15T09:13:46.938Z,10.41
2023-04-15T09:14:46.955Z,10.28
2023-04-15T09:15:46.910Z,10.35
2023-04-15T09:16:49.229Z,10.28
2023-04-15T09:17:46.889Z,10.30
2023-04-15T09:18:46.882Z,10.28
2023-04-15T09:19:46.859Z,10.34
2023-04-15T09:20:46.857Z,10.34
2023-04-15T09:21:46.872Z,10.38
2023-04-15T09:22:46.838Z,10.34
2023-04-15T09:23:46.817Z,10.30
2023-04-15T09:24:46.818Z,10.35
2023-04-15T09:25:46.810Z,10.23
2023-04-15T09:26:46.803Z,10.22
2023-04-15T09:27:46.827Z,10.13
2023-04-15T09:28:46.762Z,10.16
2023-04-15T09:29:46.793Z,10.17
2023-04-15T09:30:48.136Z,10.13
2023-04-15T09:31:46.740Z,10.23
2023-04-15T09:32:46.741Z,10.23
2023-04-15T09:33:46.708Z,10.25
2023-04-15T09:34:46.721Z,10.38
2023-04-15T09:35:46.685Z,10.51
2023-04-15T09:36:47.694Z,10.54
2023-04-15T09:37:46.660Z,10.71
2023-04-15T09:38:46.647Z,10.56
2023-04-15T09:39:46.631Z,10.53
2023-04-15T09:40:46.643Z,10.57
2023-04-15T09:41:46.614Z,10.48
2023-04-15T09:42:48.124Z,10.53
2023-04-15T09:43:46.640Z,10.54
2023-04-15T09:44:46.597Z,10.57
2023-04-15T09:45:46.632Z,10.63
2023-04-15T09:46:46.564Z,10.56
2023-04-15T09:47:46.598Z,10.54
2023-04-15T09:48:46.534Z,10.60
2023-04-15T09:49:46.565Z,10.67
2023-04-15T09:50:46.524Z,10.64
2023-04-15T09:51:57.566Z,10.79
2023-04-15T09:52:47.502Z,10.63
2023-04-15T09:53:46.471Z,10.54
2023-04-15T09:54:46.463Z,10.51
2023-04-15T09:55:46.453Z,10.46
2023-04-15T09:56:46.456Z,10.49
2023-04-15T09:57:46.466Z,10.48
2023-04-15T09:58:46.424Z,10.51
2023-04-15T09:59:46.435Z,10.56
2023-04-15T10:00:46.404Z,10.48
2023-04-15T10:01:46.439Z,10.40
2023-04-15T10:02:46.494Z,10.48
2023-04-15T10:03:46.542Z,10.51
2023-04-15T10:04:46.391Z,10.41
2023-04-15T10:05:46.359Z,10.48
2023-04-15T10:06:46.340Z,10.40
2023-04-15T10:07:46.340Z,10.40
2023-04-15T10:08:46.309Z,10.35
2023-04-15T10:09:46.316Z,10.42
2023-04-15T10:10:46.286Z,10.38
2023-04-15T10:11:46.286Z,10.40
2023-04-15T10:12:46.312Z,10.42
2023-04-15T10:13:46.278Z,10.46
2023-04-15T10:14:46.274Z,10.40
2023-04-15T10:15:46.277Z,10.41
2023-04-15T10:16:46.225Z,10.37
2023-04-15T10:17:46.335Z,10.34
2023-04-15T10:18:46.221Z,10.37
2023-04-15T10:19:46.193Z,10.41
2023-04-15T10:20:46.179Z,10.38
2023-04-15T10:21:46.181Z,10.38
2023-04-15T10:22:46.165Z,10.37
2023-04-15T10:23:46.140Z,10.35
2023-04-15T10:24:46.145Z,10.38
2023-04-15T10:25:46.120Z,10.38
2023-04-15T10:26:46.116Z,10.41
2023-04-15T10:27:46.094Z,10.40
2023-04-15T10:28:46.085Z,10.41
2023-04-15T10:29:46.097Z,10.38
2023-04-15T10:30:46.071Z,10.40
2023-04-15T10:31:46.192Z,10.40
2023-04-15T10:32:46.113Z,10.40
2023-04-15T10:33:46.043Z,10.44
2023-04-15T10:34:46.025Z,10.42
2023-04-15T10:35:46.021Z,10.44
2023-04-15T10:36:45.992Z,10.46
2023-04-15T10:37:46.005Z,10.44
2023-04-15T10:38:45.967Z,10.57
2023-04-15T10:39:45.968Z,10.56
2023-04-15T10:40:45.951Z,10.53
2023-04-15T10:41:45.954Z,10.48
2023-04-15T10:42:45.931Z,10.46
2023-04-15T10:43:45.919Z,10.54
2023-04-15T10:44:45.902Z,10.54
2023-04-15T10:45:45.898Z,10.46
2023-04-15T10:46:45.969Z,10.46
2023-04-15T10:47:45.967Z,10.37
2023-04-15T10:48:45.859Z,10.42
2023-04-15T10:49:45.855Z,10.42
2023-04-15T10:50:45.861Z,10.41
2023-04-15T10:51:45.843Z,10.38
2023-04-15T10:52:45.818Z,10.37
2023-04-15T10:53:45.870Z,10.35
2023-04-15T10:54:45.799Z,10.37
2023-04-15T10:55:45.781Z,10.41
2023-04-15T10:56:45.787Z,10.35
2023-04-15T10:57:45.756Z,10.40
2023-04-15T10:58:45.749Z,10.46
2023-04-15T10:59:45.763Z,10.44
2023-04-15T11:00:45.747Z,10.56
2023-04-15T11:01:45.731Z,10.51
2023-04-15T11:02:45.814Z,10.51
2023-04-15T11:03:45.955Z,10.57
2023-04-15T11:04:45.755Z,10.54
2023-04-15T11:05:45.679Z,10.54
2023-04-15T11:06:45.681Z,10.57
2023-04-15T11:07:45.646Z,10.61
2023-04-15T11:08:45.643Z,10.67
2023-04-15T11:09:45.624Z,10.69
2023-04-15T11:10:45.607Z,10.71
2023-04-15T11:11:46.463Z,10.74
2023-04-15T11:12:45.616Z,10.68
2023-04-15T11:13:45.599Z,10.76
2023-04-15T11:14:45.565Z,10.81
2023-04-15T11:15:45.554Z,10.84
2023-04-15T11:16:45.582Z,10.82
2023-04-15T11:17:46.550Z,10.84
2023-04-15T11:18:52.678Z,10.74
2023-04-15T11:19:45.555Z,10.72
2023-04-15T11:20:45.507Z,10.78
2023-04-15T11:21:45.492Z,10.82
2023-04-15T11:22:45.489Z,10.74
2023-04-15T11:23:45.477Z,10.72
2023-04-15T11:24:45.455Z,10.84
2023-04-15T11:25:45.465Z,10.76
2023-04-15T11:26:45.432Z,10.81
2023-04-15T11:27:45.438Z,10.84
2023-04-15T11:28:45.417Z,10.72
2023-04-15T11:29:45.400Z,10.64
2023-04-15T11:30:45.383Z,10.76
2023-04-15T11:31:45.390Z,10.68
2023-04-15T11:32:45.456Z,10.84
2023-04-15T11:33:45.379Z,10.79
2023-04-15T11:34:45.358Z,10.84
2023-04-15T11:35:45.326Z,10.89
2023-04-15T11:36:45.323Z,10.94
2023-04-15T11:37:45.305Z,11.10
2023-04-15T11:38:45.300Z,11.07
2023-04-15T11:39:45.296Z,11.08
2023-04-15T11:40:47.255Z,11.04
2023-04-15T11:41:45.261Z,10.97
2023-04-15T11:42:49.932Z,10.96
2023-04-15T11:43:45.245Z,10.92
2023-04-15T11:44:45.238Z,10.90
2023-04-15T11:45:45.245Z,10.90
2023-04-15T11:46:45.662Z,10.87
2023-04-15T11:47:45.249Z,10.89
2023-04-15T11:48:45.201Z,10.96
2023-04-15T11:49:45.176Z,10.99
2023-04-15T11:50:45.176Z,11.00
2023-04-15T11:51:45.157Z,11.05
2023-04-15T11:52:45.145Z,11.00
2023-04-15T11:53:45.161Z,11.04
2023-04-15T11:54:45.113Z,10.99
2023-04-15T11:55:45.124Z,11.07
2023-04-15T11:56:45.088Z,11.02
2023-04-15T11:57:45.080Z,11.07
2023-04-15T11:58:45.075Z,11.00
2023-04-15T11:59:45.999Z,11.08
2023-04-15T12:00:45.049Z,10.94
2023-04-15T12:01:45.051Z,11.07
2023-04-15T12:02:45.154Z,11.04
2023-04-15T12:03:45.156Z,11.00
2023-04-15T12:04:45.106Z,10.96
2023-04-15T12:05:45.002Z,10.93
2023-04-15T12:06:45.005Z,10.93
2023-04-15T12:07:44.966Z,10.99
2023-04-15T12:08:44.962Z,10.94
2023-04-15T12:09:44.950Z,10.99
2023-04-15T12:10:44.962Z,10.93
2023-04-15T12:11:44.929Z,10.97
2023-04-15T12:12:44.907Z,10.82
2023-04-15T12:13:44.899Z,10.90
2023-04-15T12:14:44.889Z,10.90
2023-04-15T12:15:44.924Z,10.90
2023-04-15T12:16:49.299Z,10.94
2023-04-15T12:17:51.851Z,11.00
2023-04-15T12:18:45.959Z,11.10
2023-04-15T12:19:44.840Z,10.97
2023-04-15T12:20:44.816Z,11.14
2023-04-15T12:21:44.822Z,11.04
2023-04-15T12:22:44.820Z,11.08
2023-04-15T12:23:44.788Z,11.10
2023-04-15T12:24:44.776Z,10.97
2023-04-15T12:25:44.777Z,10.94
2023-04-15T12:26:44.769Z,10.94
2023-04-15T12:27:44.753Z,11.04
2023-04-15T12:28:44.734Z,11.02
2023-04-15T12:29:44.746Z,11.07
2023-04-15T12:30:44.706Z,11.14
2023-04-15T12:31:44.852Z,11.02
2023-04-15T12:32:44.703Z,11.08
2023-04-15T12:33:44.689Z,11.12
2023-04-15T12:34:44.677Z,11.11
2023-04-15T12:35:44.655Z,11.17
2023-04-15T12:36:44.640Z,11.19
2023-04-15T12:37:44.652Z,11.07
2023-04-15T12:38:44.662Z,11.02
2023-04-15T12:39:44.625Z,11.10
2023-04-15T12:40:44.601Z,11.04
2023-04-15T12:41:44.586Z,11.05
2023-04-15T12:42:44.614Z,11.02
2023-04-15T12:43:44.574Z,10.97
2023-04-15T12:44:44.573Z,10.94
2023-04-15T12:45:44.538Z,10.90
2023-04-15T12:46:44.647Z,10.84
2023-04-15T12:47:44.596Z,10.78
2023-04-15T12:48:44.552Z,10.82
2023-04-15T12:49:44.521Z,10.72
2023-04-15T12:50:44.491Z,10.71
2023-04-15T12:51:44.489Z,10.61
2023-04-15T12:52:44.462Z,10.59
2023-04-15T12:53:44.451Z,10.67
2023-04-15T12:54:44.471Z,10.56
2023-04-15T12:55:44.441Z,10.54
2023-04-15T12:56:44.424Z,10.51
2023-04-15T12:57:44.439Z,10.51
2023-04-15T12:58:44.437Z,10.44
2023-04-15T12:59:44.478Z,10.42
2023-04-15T13:00:44.371Z,10.53
2023-04-15T13:01:44.445Z,10.41
2023-04-15T13:02:44.566Z,10.59
2023-04-15T13:03:44.560Z,10.46
2023-04-15T13:04:44.384Z,10.56
2023-04-15T13:05:45.150Z,10.53
2023-04-15T13:06:44.301Z,10.49
2023-04-15T13:07:44.401Z,10.56
2023-04-15T13:08:55.207Z,10.61
2023-04-15T13:09:45.287Z,10.63